createdAt,value
2019-03-08T00:00:39.880Z,9.56
2019-03-08T00:03:27.305Z,9.42
2019-03-08T00:06:14.624Z,9.50
2019-03-08T00:09:04.094Z,9.37
2019-03-08T00:11:51.827Z,9.42
2019-03-08T00:14:38.893Z,9.48
2019-03-08T00:17:26.676Z,9.52
2019-03-08T00:20:14.204Z,9.60
2019-03-08T00:23:01.731Z,9.62
2019-03-08T00:25:49.256Z,9.75
2019-03-08T00:28:36.679Z,9.52
2019-03-08T00:31:24.206Z,9.73
2019-03-08T00:34:11.936Z,9.59
2019-03-08T00:36:59.370Z,9.72
2019-03-08T00:39:46.688Z,9.38
2019-03-08T00:42:34.520Z,9.34
2019-03-08T00:45:22.152Z,9.66
2019-03-08T00:48:09.364Z,9.56
2019-03-08T00:50:56.729Z,9.61
2019-03-08T00:53:44.317Z,9.44
2019-03-08T00:56:31.740Z,9.53
2019-03-08T00:59:19.781Z,9.37
2019-03-08T01:02:07.206Z,9.48
2019-03-08T01:04:54.885Z,9.50
2019-03-08T01:07:42.728Z,9.56
2019-03-08T01:10:30.307Z,9.41
2019-03-08T01:13:17.923Z,9.41
2019-03-08T01:16:05.656Z,9.54
2019-03-08T01:18:53.081Z,9.65
2019-03-08T01:21:40.002Z,9.66
2019-03-08T01:24:27.655Z,9.45
2019-03-08T01:27:15.044Z,9.45
2019-03-08T01:30:03.086Z,9.54
2019-03-08T01:32:50.723Z,9.37
2019-03-08T01:35:37.828Z,9.12
2019-03-08T01:38:26.235Z,9.13
2019-03-08T01:41:14.111Z,9.54
2019-03-08T01:44:01.330Z,9.58
2019-03-08T01:46:48.654Z,9.61
2019-03-08T01:49:36.593Z,9.31
2019-03-08T01:52:24.219Z,9.39
2019-03-08T01:55:11.439Z,9.58
2019-03-08T01:57:58.963Z,9.48
2019-03-08T02:00:46.825Z,9.38
2019-03-08T02:03:34.342Z,9.58
2019-03-08T02:06:21.646Z,9.46
2019-03-08T02:09:09.275Z,9.24
2019-03-08T02:11:56.638Z,9.18
2019-03-08T02:14:44.635Z,8.94
2019-03-08T02:17:32.066Z,9.13
2019-03-08T02:20:21.477Z,9.41
2019-03-08T02:23:09.056Z,9.53
2019-03-08T02:25:56.380Z,9.30
2019-03-08T02:28:43.497Z,9.32
2019-03-08T02:31:31.127Z,9.31
2019-03-08T02:34:19.061Z,9.26
2019-03-08T02:37:06.386Z,9.40
2019-03-08T02:39:54.218Z,9.14
2019-03-08T02:42:41.947Z,9.14
2019-03-08T02:45:29.576Z,9.43
2019-03-08T02:48:17.101Z,9.44
2019-03-08T02:51:04.628Z,9.09
2019-03-08T02:53:52.154Z,9.10
2019-03-08T02:56:39.682Z,8.96
2019-03-08T02:59:27.415Z,8.98
2019-03-08T03:02:14.721Z,9.12
2019-03-08T03:05:02.570Z,9.06
2019-03-08T03:07:50.406Z,9.21
2019-03-08T03:10:37.733Z,9.19
2019-03-08T03:13:25.253Z,9.00
2019-03-08T03:16:12.849Z,8.88
2019-03-08T03:19:00.634Z,9.08
2019-03-08T03:21:47.938Z,8.87
2019-03-08T03:24:35.463Z,9.27
2019-03-08T03:27:22.474Z,9.45
2019-03-08T03:30:18.396Z,9.18
2019-03-08T03:33:05.521Z,8.82
2019-03-08T03:35:52.938Z,8.76
2019-03-08T03:38:40.669Z,8.98
2019-03-08T03:41:29.436Z,8.85
2019-03-08T03:44:16.952Z,8.60
2019-03-08T03:47:04.684Z,8.56
2019-03-08T03:49:52.635Z,8.71
2019-03-08T03:52:40.351Z,8.86
2019-03-08T03:55:27.990Z,8.82
2019-03-08T03:58:15.095Z,9.08
2019-03-08T04:01:04.466Z,9.06
2019-03-08T04:03:51.788Z,8.95
2019-03-08T04:06:39.725Z,8.71
2019-03-08T04:09:26.945Z,8.62
2019-03-08T04:12:14.369Z,8.63
2019-03-08T04:15:02.000Z,8.72
2019-03-08T04:17:49.419Z,8.78
2019-03-08T04:20:37.666Z,8.81
2019-03-08T04:23:24.473Z,8.80
2019-03-08T04:26:12.205Z,8.78
2019-03-08T04:28:59.630Z,9.07
2019-03-08T04:31:47.259Z,9.04
2019-03-08T04:34:34.586Z,8.98
2019-03-08T04:37:21.903Z,9.28
2019-03-08T04:40:14.050Z,9.49
2019-03-08T04:43:01.372Z,9.18
2019-03-08T04:45:48.990Z,9.00
2019-03-08T04:48:36.412Z,9.04
2019-03-08T04:51:23.937Z,9.29
2019-03-08T04:54:11.361Z,9.43
2019-03-08T04:56:58.897Z,9.57
2019-03-08T04:59:46.312Z,8.99
2019-03-08T05:02:33.737Z,9.07
2019-03-08T05:05:21.163Z,8.97
2019-03-08T05:08:08.687Z,9.10
2019-03-08T05:10:57.136Z,9.09
2019-03-08T05:13:44.869Z,9.21
2019-03-08T05:16:32.394Z,9.12
2019-03-08T05:19:19.820Z,8.95
2019-03-08T05:22:07.769Z,9.06
2019-03-08T05:24:55.383Z,9.00
2019-03-08T05:27:42.600Z,8.93
2019-03-08T05:30:29.825Z,8.64
2019-03-08T05:33:17.450Z,8.65
2019-03-08T05:36:04.975Z,8.91
2019-03-08T05:38:52.501Z,8.79
2019-03-08T05:41:39.925Z,8.88
2019-03-08T05:44:27.556Z,8.82
2019-03-08T05:47:15.085Z,8.98
2019-03-08T05:50:02.096Z,8.79
2019-03-08T05:52:49.828Z,8.92
2019-03-08T05:55:37.560Z,8.90
2019-03-08T05:58:25.290Z,9.03
2019-03-08T06:01:13.229Z,9.16
2019-03-08T06:04:00.649Z,8.99
2019-03-08T06:06:48.282Z,8.81
2019-03-08T06:09:35.499Z,8.67
2019-03-08T06:12:22.926Z,9.07
2019-03-08T06:15:10.553Z,8.96
2019-03-08T06:17:58.180Z,9.03
2019-03-08T06:20:45.605Z,8.89
2019-03-08T06:23:33.439Z,8.96
2019-03-08T06:26:20.862Z,9.05
2019-03-08T06:29:08.697Z,8.94
2019-03-08T06:31:56.329Z,8.71
2019-03-08T06:34:44.366Z,8.80
2019-03-08T06:37:32.160Z,8.89
2019-03-08T06:40:19.620Z,9.10
2019-03-08T06:43:06.635Z,9.15
2019-03-08T06:45:54.263Z,9.13
2019-03-08T06:48:41.384Z,9.33
2019-03-08T06:51:29.214Z,8.94
2019-03-08T06:54:16.230Z,8.90
2019-03-08T06:57:03.758Z,9.09
2019-03-08T06:59:53.024Z,9.30
2019-03-08T07:02:40.362Z,8.83
2019-03-08T07:05:28.078Z,8.91
2019-03-08T07:08:15.501Z,8.80
2019-03-08T07:11:02.825Z,8.90
2019-03-08T07:13:50.362Z,9.07
2019-03-08T07:16:37.677Z,9.45
2019-03-08T07:19:25.099Z,9.77
2019-03-08T07:22:14.261Z,9.80
2019-03-08T07:25:06.600Z,9.95
2019-03-08T07:28:11.535Z,10.00
2019-03-08T07:31:17.084Z,9.79
2019-03-08T07:34:11.676Z,9.63
2019-03-08T07:37:09.748Z,9.59
2019-03-08T07:40:07.005Z,9.84
2019-03-08T07:43:01.493Z,9.83
2019-03-08T07:46:02.741Z,9.40
2019-03-08T07:49:06.960Z,9.77
2019-03-08T07:52:02.062Z,9.60
2019-03-08T07:55:07.149Z,9.53
2019-03-08T07:58:05.482Z,9.20
2019-03-08T08:01:00.789Z,9.14
2019-03-08T08:04:06.033Z,9.29
2019-03-08T08:06:55.503Z,9.50
2019-03-08T08:09:44.265Z,9.54
2019-03-08T08:12:33.644Z,9.41
2019-03-08T08:15:40.820Z,9.61
2019-03-08T08:18:38.597Z,9.49
2019-03-08T08:21:30.716Z,9.93
2019-03-08T08:24:28.075Z,10.12
2019-03-08T08:27:29.118Z,9.65
2019-03-08T08:30:18.387Z,9.66
2019-03-08T08:33:23.833Z,9.76
2019-03-08T08:36:12.901Z,9.30
2019-03-08T08:39:04.977Z,9.16
2019-03-08T08:42:02.286Z,9.00
2019-03-08T08:44:53.071Z,9.00
2019-03-08T08:47:44.811Z,8.90
2019-03-08T08:50:35.635Z,8.99
2019-03-08T08:53:26.191Z,9.05
2019-03-08T08:56:15.583Z,9.23
2019-03-08T08:59:07.409Z,9.29
2019-03-08T09:02:02.616Z,9.37
2019-03-08T09:04:52.806Z,9.29
2019-03-08T09:07:42.174Z,9.20
2019-03-08T09:10:31.139Z,9.27
2019-03-08T09:13:22.555Z,9.61
2019-03-08T09:16:26.949Z,9.52
2019-03-08T09:19:18.700Z,9.77
2019-03-08T09:22:07.769Z,9.46
2019-03-08T09:25:00.179Z,9.46
2019-03-08T09:27:52.034Z,9.55
2019-03-08T09:30:46.942Z,9.80
2019-03-08T09:33:35.544Z,9.89
2019-03-08T09:36:30.897Z,10.13
2019-03-08T09:39:25.998Z,10.42
2019-03-08T09:42:15.060Z,9.96
2019-03-08T09:45:13.256Z,10.09
2019-03-08T09:48:18.791Z,10.25
2019-03-08T09:51:22.907Z,10.23
2019-03-08T09:54:28.347Z,10.03
2019-03-08T09:57:17.820Z,10.13
2019-03-08T10:00:31.257Z,10.20
2019-03-08T10:03:20.420Z,10.12
2019-03-08T10:06:09.582Z,9.97
2019-03-08T10:08:58.548Z,9.81
2019-03-08T10:11:59.592Z,10.04
2019-03-08T10:14:51.215Z,10.38
2019-03-08T10:17:52.072Z,10.41
2019-03-08T10:20:44.198Z,10.41
2019-03-08T10:23:36.422Z,10.40
2019-03-08T10:26:28.350Z,10.40
2019-03-08T10:29:17.821Z,10.64
2019-03-08T10:32:23.780Z,10.94
2019-03-08T10:35:23.282Z,10.97
2019-03-08T10:38:07.644Z,10.80
2019-03-08T10:41:00.286Z,10.94
2019-03-08T10:44:08.688Z,11.31
2019-03-08T10:46:58.225Z,11.42
2019-03-08T10:50:05.568Z,11.72
2019-03-08T10:52:54.941Z,11.70
2019-03-08T10:55:46.559Z,11.80
2019-03-08T10:58:38.695Z,11.86
2019-03-08T11:01:28.095Z,11.65
2019-03-08T11:04:23.167Z,11.29
2019-03-08T11:07:12.230Z,11.67
2019-03-08T11:10:07.439Z,11.81
2019-03-08T11:13:13.302Z,12.13
2019-03-08T11:16:05.324Z,12.11
2019-03-08T11:18:54.615Z,11.39
2019-03-08T11:24:44.904Z,11.95
2019-03-08T11:27:42.882Z,11.81
2019-03-08T11:30:53.908Z,11.92
2019-03-08T11:33:40.357Z,12.14
2019-03-08T11:36:35.357Z,12.19
2019-03-08T11:39:24.522Z,12.22
2019-03-08T11:42:22.594Z,12.11
2019-03-08T11:45:28.245Z,12.62
2019-03-08T11:48:29.289Z,12.41
2019-03-08T11:51:30.537Z,12.36
2019-03-08T11:54:40.789Z,12.09
2019-03-08T11:57:42.659Z,11.96
2019-03-08T12:00:38.275Z,11.99
2019-03-08T12:07:05.964Z,12.30
2019-03-08T12:10:00.865Z,12.25
2019-03-08T12:12:53.418Z,12.08
2019-03-08T12:15:49.331Z,12.36
2019-03-08T12:18:41.054Z,12.60
2019-03-08T12:21:35.544Z,12.45
2019-03-08T12:24:24.223Z,12.66
2019-03-08T12:27:29.337Z,12.57
2019-03-08T12:30:24.670Z,12.46
2019-03-08T12:33:16.272Z,12.62
2019-03-08T12:36:04.920Z,12.63
2019-03-08T12:39:12.210Z,12.62
2019-03-08T12:42:07.621Z,12.69
2019-03-08T12:44:56.330Z,12.63
2019-03-08T12:47:45.336Z,12.33
2019-03-08T12:50:46.589Z,12.00
2019-03-08T12:53:41.384Z,12.46
2019-03-08T12:56:30.859Z,12.79
2019-03-08T12:59:22.070Z,13.15
2019-03-08T13:02:27.209Z,13.69
2019-03-08T13:05:16.373Z,13.65
2019-03-08T13:08:23.150Z,13.65
2019-03-08T13:11:10.575Z,13.62
2019-03-08T13:13:57.690Z,13.72
2019-03-08T13:16:45.217Z,13.78
2019-03-08T13:19:32.641Z,13.82
2019-03-08T13:22:20.168Z,13.56
2019-03-08T13:25:08.479Z,13.48
2019-03-08T13:27:55.939Z,13.43
2019-03-08T13:30:43.362Z,13.34
2019-03-08T13:33:30.888Z,13.65
2019-03-08T13:36:18.521Z,13.82
2019-03-08T13:39:07.595Z,13.80
2019-03-08T13:41:55.012Z,13.62
2019-03-08T13:44:42.437Z,13.47
2019-03-08T13:47:32.063Z,13.65
2019-03-08T13:50:19.899Z,13.76
2019-03-08T13:53:08.842Z,13.42
2019-03-08T13:56:04.420Z,14.23
2019-03-08T13:58:51.846Z,14.75
2019-03-08T14:01:39.067Z,14.75
2019-03-08T14:04:26.586Z,14.60
2019-03-08T14:07:14.424Z,14.63
2019-03-08T14:10:01.540Z,14.66
2019-03-08T14:12:48.963Z,14.64
2019-03-08T14:15:36.803Z,14.68
2019-03-08T14:18:24.324Z,14.77
2019-03-08T14:21:12.159Z,14.38
2019-03-08T14:23:59.682Z,14.40
2019-03-08T14:26:47.823Z,14.53
2019-03-08T14:29:35.043Z,14.53
2019-03-08T14:32:25.381Z,14.73
2019-03-08T14:35:11.846Z,14.30
2019-03-08T14:37:59.573Z,14.40
2019-03-08T14:40:48.614Z,14.61
2019-03-08T14:43:40.254Z,14.71
2019-03-08T14:46:33.104Z,14.92
2019-03-08T14:49:22.800Z,14.90
2019-03-08T14:52:09.285Z,14.88
2019-03-08T14:54:57.426Z,14.58
2019-03-08T14:57:44.543Z,14.83
2019-03-08T15:00:32.076Z,14.64
2019-03-08T15:03:20.129Z,14.62
2019-03-08T15:06:10.606Z,14.61
2019-03-08T15:08:58.340Z,14.76
2019-03-08T15:11:46.170Z,14.89
2019-03-08T15:14:33.816Z,15.05
2019-03-08T15:17:22.564Z,14.79
2019-03-08T15:20:15.337Z,14.93
2019-03-08T15:23:01.723Z,14.70
2019-03-08T15:25:50.539Z,14.49
2019-03-08T15:28:38.498Z,14.80
2019-03-08T15:31:26.027Z,14.45
2019-03-08T15:34:14.624Z,13.94
2019-03-08T15:37:02.612Z,13.82
2019-03-08T15:39:50.356Z,13.41
2019-03-08T15:42:38.043Z,13.66
2019-03-08T15:45:25.401Z,13.33
2019-03-08T15:48:14.497Z,13.06
2019-03-08T15:51:01.987Z,13.26
2019-03-08T15:53:49.740Z,13.28
2019-03-08T15:56:37.563Z,13.20
2019-03-08T15:59:25.201Z,13.21
2019-03-08T16:02:13.839Z,13.11
2019-03-08T16:05:03.749Z,13.48
2019-03-08T16:07:50.321Z,13.73
2019-03-08T16:10:37.747Z,13.61
2019-03-08T16:13:25.581Z,13.65
2019-03-08T16:16:13.625Z,13.76
2019-03-08T16:19:00.838Z,13.52
2019-03-08T16:21:50.535Z,13.31
2019-03-08T16:24:39.141Z,13.25
2019-03-08T16:27:26.591Z,12.71
2019-03-08T16:30:30.811Z,12.84
2019-03-08T16:33:37.894Z,12.89
2019-03-08T16:36:32.698Z,12.59
2019-03-08T16:39:27.306Z,12.11
2019-03-08T16:42:16.039Z,12.49
2019-03-08T16:45:17.292Z,12.54
2019-03-08T16:48:07.280Z,12.42
2019-03-08T16:51:00.018Z,12.55
2019-03-08T16:53:46.523Z,12.67
2019-03-08T16:56:35.588Z,12.81
2019-03-08T16:59:24.753Z,12.50
2019-03-08T17:02:16.692Z,12.31
2019-03-08T17:05:07.038Z,12.26
2019-03-08T17:08:01.978Z,11.98
2019-03-08T17:10:53.704Z,11.89
2019-03-08T17:13:49.623Z,12.02
2019-03-08T17:16:50.465Z,11.99
2019-03-08T17:19:54.579Z,11.57
2019-03-08T17:22:44.764Z,11.67
2019-03-08T17:25:52.055Z,11.95
2019-03-08T17:28:43.688Z,11.85
2019-03-08T17:31:47.714Z,11.86
2019-03-08T17:34:42.771Z,11.87
2019-03-08T17:37:37.595Z,11.81
2019-03-08T17:40:32.697Z,11.66
2019-03-08T17:43:21.722Z,11.65
2019-03-08T17:46:22.615Z,11.75
2019-03-08T17:49:11.764Z,11.67
2019-03-08T17:52:00.932Z,11.83
2019-03-08T17:54:59.009Z,11.62
2019-03-08T17:57:59.864Z,11.66
2019-03-08T18:00:57.913Z,11.66
2019-03-08T18:03:55.579Z,11.72
2019-03-08T18:06:48.066Z,11.80
2019-03-08T18:09:52.141Z,11.81
2019-03-08T18:12:41.711Z,11.81
2019-03-08T18:15:35.907Z,11.84
2019-03-08T18:18:27.617Z,11.87
2019-03-08T18:21:16.999Z,11.81
2019-03-08T18:24:06.356Z,11.85
2019-03-08T18:26:57.951Z,11.91
2019-03-08T18:29:55.439Z,11.96
2019-03-08T18:32:46.653Z,11.90
2019-03-08T18:35:35.615Z,11.87
2019-03-08T18:38:34.612Z,11.95
2019-03-08T18:41:50.711Z,11.91
2019-03-08T18:44:45.300Z,11.88
2019-03-08T18:47:37.429Z,11.80
2019-03-08T18:50:29.463Z,11.76
2019-03-08T18:53:35.324Z,11.60
2019-03-08T18:56:27.146Z,11.71
2019-03-08T18:59:16.523Z,11.62
2019-03-08T19:02:14.283Z,11.64
2019-03-08T19:05:12.461Z,11.38
2019-03-08T19:08:01.419Z,11.26
2019-03-08T19:10:50.992Z,11.39
2019-03-08T19:13:48.965Z,11.37
2019-03-08T19:16:40.999Z,11.33
2019-03-08T19:19:48.092Z,11.22
2019-03-08T19:22:49.231Z,11.22
2019-03-08T19:25:41.163Z,10.94
2019-03-08T19:28:44.966Z,10.85
2019-03-08T19:31:34.337Z,10.62
2019-03-08T19:34:29.132Z,10.64
2019-03-08T19:37:35.418Z,10.64
2019-03-08T19:40:24.565Z,10.20
2019-03-08T19:43:16.703Z,10.69
2019-03-08T19:46:05.966Z,10.78
2019-03-08T19:49:03.710Z,10.41
2019-03-08T19:51:52.900Z,10.44
2019-03-08T19:54:51.282Z,10.48
2019-03-08T19:57:48.949Z,10.57
2019-03-08T20:00:46.919Z,10.10
2019-03-08T20:03:51.541Z,10.17
2019-03-08T20:06:43.582Z,10.25
2019-03-08T20:09:48.616Z,10.24
2019-03-08T20:12:49.861Z,10.27
2019-03-08T20:15:55.659Z,10.38
2019-03-08T20:18:54.005Z,10.43
2019-03-08T20:21:58.723Z,10.56
2019-03-08T20:24:56.694Z,10.45
2019-03-08T20:27:49.344Z,10.44
2019-03-08T20:30:48.711Z,10.36
2019-03-08T20:33:46.491Z,10.55
2019-03-08T20:36:37.835Z,10.49
2019-03-08T20:39:36.109Z,10.57
2019-03-08T20:42:28.270Z,10.39
2019-03-08T20:45:20.892Z,10.35
2019-03-08T20:48:09.341Z,10.51
2019-03-08T20:50:56.875Z,10.85
2019-03-08T20:53:45.927Z,10.73
2019-03-08T20:56:34.006Z,10.22
2019-03-08T20:59:21.696Z,10.39
2019-03-08T21:02:10.007Z,10.06
2019-03-08T21:04:57.879Z,9.91
2019-03-08T21:07:46.590Z,9.89
2019-03-08T21:10:34.057Z,9.84
2019-03-08T21:13:21.373Z,9.96
2019-03-08T21:16:09.107Z,9.47
2019-03-08T21:18:56.535Z,9.55
2019-03-08T21:21:44.321Z,9.84
2019-03-08T21:24:31.895Z,9.67
2019-03-08T21:27:19.272Z,9.95
2019-03-08T21:30:12.695Z,9.59
2019-03-08T21:32:59.963Z,9.68
2019-03-08T21:35:47.733Z,9.66
2019-03-08T21:38:34.952Z,9.62
2019-03-08T21:41:22.376Z,9.68
2019-03-08T21:44:10.212Z,9.41
2019-03-08T21:46:57.681Z,9.76
2019-03-08T21:49:45.386Z,9.64
2019-03-08T21:52:32.482Z,9.81
2019-03-08T21:55:20.316Z,9.80
2019-03-08T21:58:08.101Z,9.57
2019-03-08T22:00:55.579Z,9.53
2019-03-08T22:03:44.947Z,9.72
2019-03-08T22:06:32.481Z,10.14
2019-03-08T22:09:21.863Z,9.79
2019-03-08T22:12:09.368Z,10.09
2019-03-08T22:14:56.892Z,10.33
2019-03-08T22:17:45.238Z,10.19
2019-03-08T22:20:32.970Z,10.24
2019-03-08T22:23:21.011Z,10.22
2019-03-08T22:26:08.229Z,10.09
2019-03-08T22:28:56.062Z,9.88
2019-03-08T22:31:43.383Z,9.87
2019-03-08T22:34:30.704Z,9.95
2019-03-08T22:37:18.336Z,9.85
2019-03-08T22:40:06.889Z,9.80
2019-03-08T22:42:54.418Z,9.60
2019-03-08T22:45:41.937Z,9.94
2019-03-08T22:48:29.466Z,9.80
2019-03-08T22:51:17.095Z,9.86
2019-03-08T22:54:05.418Z,10.16
2019-03-08T22:56:52.663Z,10.28
2019-03-08T22:59:39.878Z,9.88
2019-03-08T23:02:27.304Z,9.86
2019-03-08T23:05:14.740Z,10.04
2019-03-08T23:08:02.561Z,9.91
2019-03-08T23:10:50.252Z,9.74
2019-03-08T23:13:37.733Z,9.72
2019-03-08T23:16:25.142Z,9.73
2019-03-08T23:19:12.973Z,9.96
2019-03-08T23:22:00.503Z,9.73
2019-03-08T23:24:48.235Z,9.79
2019-03-08T23:27:46.411Z,9.72
2019-03-08T23:30:33.626Z,9.68
2019-03-08T23:33:21.388Z,9.81
2019-03-08T23:36:08.891Z,9.80
2019-03-08T23:38:56.420Z,9.73
2019-03-08T23:41:44.256Z,9.65
2019-03-08T23:44:31.874Z,9.58
2019-03-08T23:47:19.920Z,9.91
2019-03-08T23:50:09.429Z,9.91
2019-03-08T23:52:57.019Z,10.06
2019-03-08T23:55:44.646Z,9.85
2019-03-08T23:58:32.485Z,9.78
